Time;durP1;ratioP1;P1;durP2;ratioP2;P2;SDS_P1;SDS_P2;PMS_P1;PMS_P2;Temp;Humidity;BMP_temperature;BMP_pressure;BME280_temperature;BME280_humidity;BME280_pressure;Samples;Min_cycle;Max_cycle;Signal;HPM_P1;HPM_P2
2022/04/30 00:00:44;;;;;;;2.20;1.40;;;;;;;11.90;65.54;100071.84;25139;1313;3026827;-65
2022/04/30 00:03:14;;;;;;;9.00;1.90;;;;;;;11.71;65.87;100066.74;25135;1313;3072118;-63
2022/04/30 00:05:43;;;;;;;4.30;1.70;;;;;;;11.46;66.73;100067.96;25176;1312;3026249;-63
2022/04/30 00:08:12;;;;;;;3.50;1.80;;;;;;;11.36;66.51;100067.24;25177;1313;3051427;-66
2022/04/30 00:10:41;;;;;;;4.40;1.80;;;;;;;11.25;66.67;100069.60;25184;1315;3026055;-65
2022/04/30 00:13:10;;;;;;;2.70;1.50;;;;;;;11.18;66.20;100068.75;25192;1312;3052349;-66
2022/04/30 00:15:40;;;;;;;4.00;2.00;;;;;;;11.06;66.58;100066.40;25186;1313;3026881;-64
2022/04/30 00:18:10;;;;;;;3.70;2.00;;;;;;;10.93;67.12;100070.96;25142;1313;3026538;-65
2022/04/30 00:20:46;;;;;;;2.90;1.80;;;;;;;10.80;67.78;100070.91;25190;1313;3026374;-66
2022/04/30 00:23:22;;;;;;;3.70;2.10;;;;;;;10.64;68.93;100069.98;25174;1312;3055194;-66
2022/04/30 00:25:53;;;;;;;3.30;1.40;;;;;;;10.55;69.60;100076.91;25161;1312;3053605;-63
2022/04/30 00:28:26;;;;;;;2.90;1.30;;;;;;;11.17;68.09;100071.76;25153;1315;3059093;-67
2022/04/30 00:30:56;;;;;;;2.10;1.40;;;;;;;11.64;66.58;100066.29;25129;1315;3026072;-66
2022/04/30 00:33:25;;;;;;;3.60;1.50;;;;;;;11.57;66.87;100060.64;25167;1312;3026594;-64
2022/04/30 00:35:54;;;;;;;3.10;1.60;;;;;;;11.45;67.15;100061.34;25116;1312;3026926;-65
2022/04/30 00:38:23;;;;;;;3.80;1.50;;;;;;;11.28;67.84;100067.14;25157;1313;3049086;-63
2022/04/30 00:40:53;;;;;;;3.00;1.80;;;;;;;11.08;68.58;100065.08;25163;1313;3026292;-63
2022/04/30 00:43:22;;;;;;;5.70;2.10;;;;;;;10.99;68.60;100068.84;25158;1313;3028684;-63
2022/04/30 00:45:51;;;;;;;3.20;1.70;;;;;;;10.83;69.54;100069.04;25123;1313;3053255;-65
2022/04/30 00:48:20;;;;;;;7.40;2.30;;;;;;;10.68;70.24;100066.10;25161;1313;3027486;-62
2022/04/30 00:50:50;;;;;;;2.30;1.70;;;;;;;10.60;70.18;100064.05;25196;1313;3026254;-64
2022/04/30 00:53:19;;;;;;;2.20;1.50;;;;;;;10.46;70.87;100060.05;25167;1313;3026892;-67
2022/04/30 00:55:49;;;;;;;2.60;1.50;;;;;;;10.94;69.75;100060.37;25168;1313;3051611;-64
2022/04/30 00:58:18;;;;;;;2.50;1.60;;;;;;;11.46;67.90;100056.93;25131;1313;3027177;-66
2022/04/30 01:00:49;;;;;;;4.80;1.70;;;;;;;11.58;66.79;100060.08;25153;1313;3048950;-67
2022/04/30 01:03:38;;;;;;;3.70;1.90;;;;;;;11.42;66.80;100055.69;25158;1313;3053244;-66
2022/04/30 01:06:09;;;;;;;4.30;1.80;;;;;;;11.16;67.55;100058.19;25139;1313;3026020;-63
2022/04/30 01:08:38;;;;;;;3.10;1.80;;;;;;;10.83;69.13;100056.23;25178;1312;3027505;-64
2022/04/30 01:11:10;;;;;;;3.80;1.90;;;;;;;10.65;70.07;100056.42;25156;1314;3026712;-66
2022/04/30 01:13:38;;;;;;;5.50;2.00;;;;;;;10.62;69.72;100064.64;25110;1312;3026253;-65
2022/04/30 01:16:08;;;;;;;2.80;1.90;;;;;;;10.47;70.84;100067.34;25119;1312;3068239;-63
2022/04/30 01:18:37;;;;;;;3.40;2.00;;;;;;;10.33;71.44;100065.91;25099;1313;3026553;-66
2022/04/30 01:21:11;;;;;;;2.80;1.80;;;;;;;10.25;72.08;100061.95;25154;1313;3026412;-63
2022/04/30 01:23:42;;;;;;;2.70;1.50;;;;;;;10.88;70.84;100056.47;25121;1312;3055529;-67
2022/04/30 01:26:13;;;;;;;2.90;1.60;;;;;;;11.24;69.39;100057.56;25151;1312;3026546;-62
2022/04/30 01:28:45;;;;;;;4.10;2.00;;;;;;;11.27;68.98;100056.52;25140;1312;3026496;-65
2022/04/30 01:39:38;;;;;;;4.80;2.30;;;;;;;10.42;72.26;100049.02;25163;1312;3053523;-66
2022/04/30 01:42:11;;;;;;;4.90;2.10;;;;;;;10.31;72.51;100043.64;24748;1313;3578559;-63
2022/04/30 01:44:42;;;;;;;3.00;1.40;;;;;;;10.12;72.86;100044.52;25187;1313;3070327;-64
2022/04/30 01:47:11;;;;;;;3.10;1.90;;;;;;;10.72;71.55;100046.27;25096;1312;3026649;-65
2022/04/30 01:49:40;;;;;;;3.60;1.80;;;;;;;11.06;69.97;100045.20;25142;1312;3030202;-64
2022/04/30 01:52:09;;;;;;;4.60;1.90;;;;;;;10.98;69.70;100041.92;25189;1312;3070872;-64
2022/04/30 01:54:39;;;;;;;4.40;2.20;;;;;;;10.84;69.75;100044.08;25183;1311;3026652;-65
2022/04/30 01:57:08;;;;;;;4.50;2.10;;;;;;;10.61;70.36;100043.84;25174;1313;3026548;-63
2022/04/30 01:59:38;;;;;;;7.10;2.00;;;;;;;10.44;70.75;100039.14;25203;1313;3028347;-64
2022/04/30 02:02:07;;;;;;;3.70;1.90;;;;;;;10.25;71.46;100037.92;25187;1313;3026225;-68
2022/04/30 02:04:37;;;;;;;4.00;2.10;;;;;;;10.15;71.49;100030.91;25168;1313;3027972;-64
2022/04/30 02:07:06;;;;;;;2.90;1.80;;;;;;;10.00;71.76;100024.30;25250;1313;3029033;-65
2022/04/30 02:09:35;;;;;;;3.00;1.40;;;;;;;9.81;72.88;100030.81;25209;1313;3058552;-63
2022/04/30 02:12:05;;;;;;;4.20;1.60;;;;;;;10.28;72.23;100029.23;25138;1313;3026873;-65
2022/04/30 02:14:36;;;;;;;3.60;1.80;;;;;;;10.88;70.29;100026.16;25143;1313;3052651;-64
2022/04/30 02:17:06;;;;;;;2.90;1.90;;;;;;;10.95;69.51;100021.77;25082;1313;3026304;-65
2022/04/30 02:22:25;;;;;;;6.10;2.00;;;;;;;10.43;70.84;100016.73;25126;1313;3055741;-65
2022/04/30 02:24:54;;;;;;;4.30;2.30;;;;;;;10.24;71.44;100018.72;25110;1313;3026309;-63
2022/04/30 02:27:24;;;;;;;4.60;2.10;;;;;;;10.03;71.83;100017.53;25163;1313;3026544;-64
2022/04/30 02:29:54;;;;;;;2.10;1.60;;;;;;;9.90;71.91;100019.68;25123;1313;3026074;-65
2022/04/30 02:32:23;;;;;;;3.80;2.00;;;;;;;9.83;71.91;100019.19;25187;1313;3026543;-62
2022/04/30 02:34:52;;;;;;;3.70;1.60;;;;;;;9.65;72.22;100020.20;25125;1313;3028770;-63
2022/04/30 02:37:21;;;;;;;2.80;1.50;;;;;;;10.08;71.43;100024.77;25173;1313;3048799;-65
2022/04/30 02:39:50;;;;;;;1.80;1.40;;;;;;;10.61;69.61;100024.96;25118;1313;3026476;-64
2022/04/30 02:42:19;;;;;;;3.20;1.40;;;;;;;10.67;68.99;100029.89;25202;1313;3026348;-65
2022/04/30 02:44:48;;;;;;;3.00;1.50;;;;;;;10.51;68.79;100030.73;25139;1310;3048771;-63
2022/04/30 02:47:17;;;;;;;2.30;1.40;;;;;;;10.26;69.60;100037.88;25122;1312;3026594;-64
2022/04/30 02:49:47;;;;;;;1.30;1.10;;;;;;;10.09;70.04;100041.70;25126;1313;3071383;-67
2022/04/30 02:52:16;;;;;;;4.00;1.40;;;;;;;9.97;70.61;100043.15;25171;1313;3028300;-68
2022/04/30 02:54:45;;;;;;;4.00;1.70;;;;;;;9.90;70.80;100046.83;25077;1312;3052973;-63
2022/04/30 02:57:15;;;;;;;2.70;1.80;;;;;;;9.81;71.21;100046.90;25098;1312;3026643;-63
2022/04/30 02:59:58;;;;;;;3.60;1.40;;;;;;;9.72;71.50;100046.11;25160;1313;3026605;-67
2022/04/30 03:02:46;;;;;;;3.40;1.30;;;;;;;9.66;71.96;100043.61;25153;1313;3054858;-66
2022/04/30 03:05:15;;;;;;;2.00;1.10;;;;;;;10.28;70.29;100047.45;25152;1313;3026693;-63
2022/04/30 03:07:46;;;;;;;2.10;1.40;;;;;;;10.80;68.44;100046.89;25121;1313;3048769;-64
2022/04/30 03:10:25;;;;;;;5.80;1.60;;;;;;;10.93;67.97;100049.03;25208;1313;3055152;-66
2022/04/30 03:12:54;;;;;;;2.80;1.30;;;;;;;10.87;67.83;100052.13;25182;1313;3026608;-63
2022/04/30 03:15:25;;;;;;;3.10;1.90;;;;;;;10.76;67.91;100051.50;25183;1315;3051331;-66
2022/04/30 03:23:36;;;;;;;3.00;1.50;;;;;;;10.30;69.35;100055.41;25159;1312;3058629;-68
2022/04/30 03:26:06;;;;;;;1.50;1.10;;;;;;;10.18;69.65;100053.31;25133;1312;3052571;-62
2022/04/30 03:28:39;;;;;;;2.40;1.70;;;;;;;10.03;70.39;100051.77;25195;1315;3026432;-63
2022/04/30 03:31:10;;;;;;;3.60;1.80;;;;;;;9.98;70.61;100054.85;25122;1312;3026540;-65
2022/04/30 03:33:39;;;;;;;2.50;1.20;;;;;;;9.92;71.02;100061.10;25139;1313;3026673;-69
2022/04/30 03:36:10;;;;;;;5.90;1.90;;;;;;;10.45;70.03;100059.56;25136;1313;3027361;-64
2022/04/30 03:38:39;;;;;;;2.10;1.50;;;;;;;10.99;67.79;100062.75;25242;1313;3052282;-65
2022/04/30 03:41:08;;;;;;;2.20;1.40;;;;;;;11.08;67.26;100061.92;25123;1312;3026198;-66
2022/04/30 03:43:37;;;;;;;2.60;1.40;;;;;;;11.10;67.05;100064.27;25176;1313;3053279;-66
2022/04/30 03:46:06;;;;;;;2.50;1.30;;;;;;;10.88;67.02;100066.13;25220;1313;3026897;-66
2022/04/30 03:48:35;;;;;;;4.00;1.40;;;;;;;10.73;67.51;100067.40;25346;1312;3048802;-61
2022/04/30 03:51:05;;;;;;;3.40;1.70;;;;;;;10.59;68.00;100072.33;25369;1313;3026628;-63
2022/04/30 03:53:35;;;;;;;1.70;1.30;;;;;;;10.54;68.08;100075.59;25219;1313;3056753;-66
2022/04/30 03:56:04;;;;;;;1.90;1.30;;;;;;;10.38;68.66;100071.11;25137;1313;3026616;-64
2022/04/30 03:58:33;;;;;;;3.70;1.30;;;;;;;10.30;68.87;100069.23;25201;1313;3055015;-63
2022/04/30 04:01:02;;;;;;;2.50;1.20;;;;;;;10.19;69.31;100068.35;25142;1313;3028374;-61
2022/04/30 04:03:31;;;;;;;2.10;1.30;;;;;;;10.12;69.55;100066.23;25166;1313;3054504;-64
2022/04/30 04:06:00;;;;;;;2.40;1.10;;;;;;;10.07;69.83;100064.54;25160;1313;3029859;-64
2022/04/30 04:08:29;;;;;;;3.80;1.00;;;;;;;10.61;68.72;100061.00;25103;1312;3050998;-65
2022/04/30 04:10:59;;;;;;;3.40;1.40;;;;;;;11.13;67.05;100058.64;25108;1312;3026218;-64
2022/04/30 04:19:07;;;;;;;2.20;1.20;;;;;;;11.08;66.46;100075.25;25136;1313;3052313;-66
2022/04/30 04:21:36;;;;;;;2.10;1.20;;;;;;;11.00;66.53;100077.22;25179;1313;3026279;-67
2022/04/30 04:27:15;;;;;;;3.10;1.60;;;;;;;10.60;68.17;100085.61;24999;1318;3050286;-65
2022/04/30 04:29:46;;;;;;;2.80;1.60;;;;;;;10.50;68.59;100084.89;25016;1318;3026513;-61
2022/04/30 04:32:16;;;;;;;4.10;1.70;;;;;;;10.42;69.24;100079.50;25167;1312;3027103;-65
2022/04/30 04:34:44;;;;;;;3.00;1.40;;;;;;;10.40;69.13;100075.39;25136;1313;3026473;-62
2022/04/30 04:37:14;;;;;;;2.30;1.40;;;;;;;10.32;69.79;100074.04;25183;1312;3054958;-65
2022/04/30 04:39:43;;;;;;;2.20;1.50;;;;;;;10.32;69.42;100070.36;25125;1313;3026174;-64
2022/04/30 04:42:12;;;;;;;3.70;0.90;;;;;;;10.36;69.51;100070.70;25156;1313;3026759;-67
2022/04/30 04:44:42;;;;;;;2.20;1.20;;;;;;;10.96;67.94;100069.19;25164;1313;3054186;-61
2022/04/30 04:47:11;;;;;;;1.90;1.20;;;;;;;11.64;65.79;100064.30;25245;1313;3026842;-66
2022/04/30 04:49:42;;;;;;;4.10;1.20;;;;;;;11.72;64.71;100062.98;25230;1313;3051935;-65
2022/04/30 04:52:10;;;;;;;3.60;1.20;;;;;;;11.74;65.06;100063.44;25184;1312;3026324;-64
2022/04/30 04:54:39;;;;;;;2.50;1.60;;;;;;;11.66;64.95;100066.69;25224;1313;3026770;-63
2022/04/30 04:57:09;;;;;;;5.20;1.90;;;;;;;11.36;65.97;100077.23;25135;1312;3051290;-64
2022/04/30 04:59:38;;;;;;;2.50;1.30;;;;;;;11.31;65.91;100081.91;25238;1313;3026062;-64
2022/04/30 05:02:07;;;;;;;1.60;1.30;;;;;;;11.19;66.16;100085.16;25150;1313;3056070;-65
2022/04/30 05:04:37;;;;;;;2.70;1.30;;;;;;;11.15;66.45;100088.02;25130;1313;3029727;-63
2022/04/30 05:07:06;;;;;;;3.50;1.30;;;;;;;11.09;66.65;100090.77;25166;1313;3027534;-63
2022/04/30 05:09:35;;;;;;;6.40;1.30;;;;;;;11.03;66.62;100091.76;25189;1312;3026365;-65
2022/04/30 05:12:07;;;;;;;2.60;1.70;;;;;;;10.97;66.57;100092.81;25135;1312;3052343;-62
2022/04/30 05:14:36;;;;;;;2.20;1.50;;;;;;;10.94;66.74;100091.78;25128;1315;3026202;-64
2022/04/30 05:17:06;;;;;;;2.40;1.40;;;;;;;10.99;66.50;100090.80;25180;1312;3027005;-64
2022/04/30 05:19:36;;;;;;;5.20;1.70;;;;;;;10.90;67.38;100087.56;25186;1313;3052340;-64
2022/04/30 05:22:05;;;;;;;3.50;1.80;;;;;;;10.93;67.79;100085.48;25165;1313;3026334;-63
2022/04/30 05:24:35;;;;;;;2.10;1.60;;;;;;;10.86;67.95;100082.18;25227;1313;3029875;-65
2022/04/30 05:27:04;;;;;;;3.00;1.20;;;;;;;10.82;68.28;100084.50;25229;1311;3026552;-65
2022/04/30 05:29:35;;;;;;;2.30;1.00;;;;;;;11.48;66.53;100086.59;25179;1313;3055309;-66
2022/04/30 05:32:04;;;;;;;1.70;1.10;;;;;;;12.25;64.53;100079.36;25180;1313;3026852;-65
2022/04/30 05:34:34;;;;;;;5.40;1.30;;;;;;;12.37;63.63;100081.46;25176;1313;3026618;-65
2022/04/30 05:37:05;;;;;;;1.30;1.00;;;;;;;12.36;63.22;100081.38;25163;1313;3026957;-65
2022/04/30 05:39:35;;;;;;;3.20;1.50;;;;;;;12.26;63.44;100079.13;25162;1312;3026701;-64
2022/04/30 05:42:05;;;;;;;2.30;1.10;;;;;;;12.07;63.94;100086.90;25168;1313;3026951;-66
2022/04/30 05:44:35;;;;;;;2.20;1.60;;;;;;;11.93;64.62;100084.98;25183;1313;3026573;-64
2022/04/30 05:47:04;;;;;;;3.50;2.30;;;;;;;11.91;64.86;100082.33;25137;1313;3026494;-65
2022/04/30 05:49:34;;;;;;;3.20;1.60;;;;;;;11.83;65.34;100086.13;25152;1313;3051740;-67
2022/04/30 05:52:03;;;;;;;2.60;1.50;;;;;;;11.74;66.17;100088.52;25147;1312;3026995;-65
2022/04/30 05:54:33;;;;;;;5.40;1.40;;;;;;;11.87;65.80;100089.22;25206;1313;3054455;-65
2022/04/30 05:57:02;;;;;;;2.50;1.70;;;;;;;11.87;65.36;100087.98;25135;1313;3028312;-68
2022/04/30 05:59:32;;;;;;;3.90;1.20;;;;;;;11.90;65.41;100083.77;25184;1313;3051055;-67
2022/04/30 06:02:02;;;;;;;3.30;1.70;;;;;;;12.06;64.35;100084.13;25161;1313;3026433;-64
2022/04/30 06:04:31;;;;;;;3.10;1.50;;;;;;;12.12;64.05;100082.23;25127;1313;3026512;-66
2022/04/30 06:07:00;;;;;;;3.20;1.40;;;;;;;12.06;64.41;100084.66;25162;1313;3030032;-64
2022/04/30 06:09:29;;;;;;;2.90;1.40;;;;;;;12.05;64.29;100088.55;25146;1313;3052927;-65
2022/04/30 06:12:00;;;;;;;3.30;1.60;;;;;;;12.13;63.62;100092.66;25152;1313;3027429;-64
2022/04/30 06:14:29;;;;;;;5.50;2.50;;;;;;;12.16;63.93;100095.48;25157;1313;3029674;-66
2022/04/30 06:17:05;;;;;;;4.10;2.10;;;;;;;12.21;63.61;100094.36;25209;1313;3054108;-66
2022/04/30 06:19:36;;;;;;;5.00;2.10;;;;;;;12.28;63.81;100099.73;25147;1313;3026530;-67
2022/04/30 06:22:07;;;;;;;2.90;1.90;;;;;;;12.33;63.35;100100.00;25162;1312;3028102;-66
2022/04/30 06:24:37;;;;;;;2.90;1.80;;;;;;;12.37;62.67;100101.88;25144;1313;3028953;-66
2022/04/30 06:27:06;;;;;;;2.70;1.60;;;;;;;12.40;61.50;100099.20;25206;1313;3026445;-67
2022/04/30 06:29:35;;;;;;;2.10;1.20;;;;;;;12.39;61.86;100101.36;25149;1313;3057564;-64
2022/04/30 06:32:05;;;;;;;3.40;1.40;;;;;;;12.47;61.97;100103.92;25166;1313;3026371;-64
2022/04/30 06:34:34;;;;;;;2.70;1.40;;;;;;;12.46;62.39;100104.89;25146;1313;3026733;-68
2022/04/30 06:37:03;;;;;;;2.50;1.70;;;;;;;12.47;62.70;100104.27;25185;1313;3027075;-64
2022/04/30 06:39:33;;;;;;;2.80;1.60;;;;;;;12.53;62.74;100108.10;25175;1313;3052305;-63
2022/04/30 06:42:03;;;;;;;3.00;1.60;;;;;;;12.53;62.47;100105.51;25139;1313;3026409;-65
2022/04/30 06:44:33;;;;;;;3.00;1.80;;;;;;;12.50;62.66;100107.42;25141;1316;3026685;-64
2022/04/30 06:47:02;;;;;;;3.50;1.50;;;;;;;12.53;62.76;100108.63;25206;1313;3026630;-65
2022/04/30 06:49:31;;;;;;;6.50;1.80;;;;;;;12.67;62.51;100105.08;25164;1313;3053450;-67
2022/04/30 06:52:00;;;;;;;3.20;2.10;;;;;;;12.84;61.95;100107.71;25142;1313;3026722;-65
2022/04/30 06:57:21;;;;;;;3.20;1.70;;;;;;;12.86;60.75;100112.53;25187;1313;3055742;-63
2022/04/30 06:59:52;;;;;;;3.20;1.90;;;;;;;12.88;60.17;100109.78;25158;1313;3053987;-66
2022/04/30 07:02:26;;;;;;;3.20;2.00;;;;;;;12.85;60.25;100103.08;25155;1313;3026252;-66
2022/04/30 07:04:55;;;;;;;;;;;;;;;12.83;58.21;100097.95;25188;1313;3047986;-66
2022/04/30 07:07:24;;;;;;;3.00;1.20;;;;;;;12.74;57.13;100090.56;25198;1313;3026943;-65
2022/04/30 07:09:53;;;;;;;2.30;1.40;;;;;;;12.65;56.98;100086.55;25157;1313;3066402;-68
2022/04/30 07:12:26;;;;;;;3.20;1.30;;;;;;;12.55;56.96;100088.67;25135;1313;3029252;-64
2022/04/30 07:14:55;;;;;;;3.50;1.70;;;;;;;12.55;56.97;100083.58;25191;1313;3028176;-65
2022/04/30 07:17:27;;;;;;;3.70;1.50;;;;;;;12.66;56.50;100085.41;25187;1312;3069314;-66
2022/04/30 07:19:57;;;;;;;4.40;1.40;;;;;;;12.80;55.72;100084.59;25169;1316;3026550;-65
2022/04/30 07:22:26;;;;;;;4.70;1.10;;;;;;;12.86;55.32;100084.20;25178;1313;3027555;-66
2022/04/30 07:24:55;;;;;;;2.70;1.50;;;;;;;12.76;55.92;100084.45;25201;1313;3070316;-66
2022/04/30 07:27:24;;;;;;;1.90;1.00;;;;;;;12.69;55.94;100077.10;25160;1313;3028265;-62
2022/04/30 07:29:54;;;;;;;3.20;1.30;;;;;;;12.79;54.78;100076.54;25191;1313;3050812;-66
2022/04/30 07:32:23;;;;;;;1.90;0.90;;;;;;;12.86;53.89;100075.76;25173;1313;3026801;-66
2022/04/30 07:34:55;;;;;;;3.20;1.00;;;;;;;13.01;53.39;100076.79;25180;1313;3055162;-66
2022/04/30 07:37:26;;;;;;;2.20;0.90;;;;;;;13.04;53.26;100078.20;25164;1313;3027074;-67
2022/04/30 07:39:56;;;;;;;1.60;1.10;;;;;;;13.13;52.76;100081.88;25134;1313;3027853;-69
2022/04/30 07:42:25;;;;;;;5.90;1.10;;;;;;;13.25;52.36;100080.95;25161;1313;3027146;-69
2022/04/30 07:44:59;;;;;;;1.60;0.80;;;;;;;13.45;52.10;100080.11;25177;1313;3050552;-65
2022/04/30 07:47:29;;;;;;;2.30;1.00;;;;;;;13.49;51.06;100074.06;25207;1313;3026446;-65
2022/04/30 07:49:59;;;;;;;2.60;1.00;;;;;;;13.55;50.75;100072.46;25201;1313;3027300;-66
2022/04/30 07:52:28;;;;;;;3.70;1.10;;;;;;;13.55;49.58;100071.23;25168;1313;3026422;-64
2022/04/30 07:54:57;;;;;;;2.50;1.10;;;;;;;13.46;49.76;100071.94;25155;1312;3067809;-68
2022/04/30 07:57:28;;;;;;;3.90;1.30;;;;;;;13.42;50.14;100067.64;25206;1313;3026425;-67
2022/04/30 07:59:58;;;;;;;3.30;1.40;;;;;;;13.56;49.95;100068.02;25177;1312;3050805;-66
2022/04/30 08:02:28;;;;;;;1.90;1.00;;;;;;;13.77;49.07;100066.12;25210;1313;3026820;-67
2022/04/30 08:04:57;;;;;;;2.90;0.80;;;;;;;13.96;48.17;100064.74;25122;1312;3028917;-66
2022/04/30 08:07:27;;;;;;;0.80;0.70;;;;;;;14.10;47.80;100065.02;25165;1313;3055244;-68
2022/04/30 08:09:56;;;;;;;3.20;1.00;;;;;;;14.08;47.80;100067.27;25162;1313;3026814;-67
2022/04/30 08:12:25;;;;;;;2.20;1.20;;;;;;;14.18;47.87;100073.15;25375;1313;3052729;-66
2022/04/30 08:14:54;;;;;;;2.00;1.00;;;;;;;14.14;47.38;100069.56;25412;1313;3026706;-65
2022/04/30 08:17:24;;;;;;;2.20;0.90;;;;;;;14.11;46.37;100069.56;25322;1313;3026788;-66
2022/04/30 08:19:53;;;;;;;2.30;0.90;;;;;;;14.11;46.62;100063.73;25198;1313;3027815;-67
2022/04/30 08:22:22;;;;;;;2.70;0.90;;;;;;;14.23;46.11;100056.82;25179;1313;3029442;-67
2022/04/30 08:24:51;;;;;;;2.80;1.40;;;;;;;14.38;45.42;100059.71;25155;1313;3069069;-69
2022/04/30 08:27:22;;;;;;;2.10;1.00;;;;;;;14.40;45.13;100060.08;25173;1313;3026593;-68
2022/04/30 08:29:51;;;;;;;1.90;0.90;;;;;;;14.40;44.83;100060.58;25208;1313;3028914;-69
2022/04/30 08:32:24;;;;;;;4.40;1.00;;;;;;;14.53;44.09;100057.40;25148;1313;3070269;-65
2022/04/30 08:34:54;;;;;;;2.00;1.00;;;;;;;14.56;44.21;100058.65;25157;1313;3028817;-68
2022/04/30 08:37:23;;;;;;;5.10;1.10;;;;;;;14.65;44.23;100053.09;25154;1315;3026748;-68
2022/04/30 08:39:52;;;;;;;2.30;0.90;;;;;;;14.69;43.44;100059.75;25146;1314;3026451;-69
2022/04/30 08:42:23;;;;;;;3.70;1.00;;;;;;;14.64;43.76;100058.11;25158;1313;3048571;-67
2022/04/30 08:44:52;;;;;;;2.60;1.20;;;;;;;14.66;43.57;100056.21;25198;1313;3026909;-66
2022/04/30 08:47:22;;;;;;;2.00;1.20;;;;;;;14.69;43.37;100053.05;25137;1313;3027606;-69
2022/04/30 08:49:52;;;;;;;2.10;1.20;;;;;;;14.83;43.50;100052.05;25160;1313;3026649;-67
2022/04/30 08:52:21;;;;;;;4.50;1.70;;;;;;;15.01;43.91;100051.75;25173;1312;3051519;-65
2022/04/30 08:54:51;;;;;;;2.80;1.90;;;;;;;15.04;43.85;100049.76;25146;1313;3026928;-67
2022/04/30 08:57:22;;;;;;;3.10;1.20;;;;;;;15.13;43.84;100048.79;25144;1313;3027344;-67
2022/04/30 08:59:52;;;;;;;1.70;0.90;;;;;;;15.17;43.01;100044.58;25128;1313;3029460;-67
2022/04/30 09:02:21;;;;;;;4.80;0.90;;;;;;;15.34;42.68;100040.42;25162;1312;3026543;-67
2022/04/30 09:04:50;;;;;;;4.80;1.20;;;;;;;15.39;43.26;100037.37;25174;1313;3057167;-68
2022/04/30 09:07:21;;;;;;;3.00;1.10;;;;;;;15.56;41.81;100029.62;25166;1312;3026956;-67
2022/04/30 09:09:55;;;;;;;4.30;1.30;;;;;;;15.71;41.96;100026.64;25177;1313;3026645;-67
2022/04/30 09:12:25;;;;;;;3.30;1.40;;;;;;;15.78;41.42;100025.95;25163;1313;3051368;-66
2022/04/30 09:14:56;;;;;;;3.20;1.20;;;;;;;15.92;41.52;100020.68;25136;1313;3028258;-71
2022/04/30 09:17:26;;;;;;;5.20;1.00;;;;;;;15.87;40.77;100014.89;25158;1313;3029220;-70
2022/04/30 09:19:56;;;;;;;4.40;1.00;;;;;;;15.88;40.39;100014.64;25184;1313;3029904;-66
2022/04/30 09:22:31;;;;;;;2.60;1.10;;;;;;;15.91;40.04;100008.60;25169;1313;3027240;-69
2022/04/30 09:25:07;;;;;;;1.50;1.10;;;;;;;15.94;39.91;100014.56;25178;1313;3059451;-68
2022/04/30 09:27:44;;;;;;;3.50;1.50;;;;;;;16.25;39.51;100008.52;25138;1313;3050132;-70
2022/04/30 09:30:18;;;;;;;2.40;1.10;;;;;;;16.58;39.19;100006.02;25178;1313;3052540;-67
2022/04/30 09:33:06;;;;;;;1.20;1.00;;;;;;;16.69;38.91;100008.20;25171;1313;3026411;-67
2022/04/30 09:38:24;;;;;;;1.80;1.20;;;;;;;16.37;38.68;100005.14;25189;1313;3051377;-71
2022/04/30 09:40:56;;;;;;;2.30;1.10;;;;;;;16.27;38.62;100005.52;25144;1313;3026313;-69
2022/04/30 09:43:34;;;;;;;3.30;1.00;;;;;;;16.27;38.85;100009.63;25194;1313;3054657;-66
2022/04/30 09:46:06;;;;;;;1.60;0.90;;;;;;;16.34;38.87;100004.29;25130;1313;3026647;-68
2022/04/30 09:54:10;;;;;;;3.80;0.90;;;;;;;16.19;39.23;100000.34;25152;1313;3053699;-71
2022/04/30 09:56:44;;;;;;;3.60;1.00;;;;;;;16.43;39.38;99997.77;25146;1313;3026727;-66
2022/04/30 09:59:14;;;;;;;2.90;0.90;;;;;;;16.50;38.79;99993.39;25196;1313;3027452;-70
2022/04/30 10:01:50;;;;;;;2.00;1.10;;;;;;;16.69;38.22;99990.67;25188;1313;3027397;-71
2022/04/30 10:04:22;;;;;;;3.40;1.10;;;;;;;16.67;38.52;99985.02;25141;1313;3054765;-69
2022/04/30 10:06:51;;;;;;;3.40;1.10;;;;;;;16.73;38.55;99980.65;25142;1313;3029116;-69
2022/04/30 10:09:22;;;;;;;2.50;1.30;;;;;;;16.93;38.17;99978.02;25106;1313;3028655;-70
2022/04/30 10:12:19;;;;;;;1.30;0.90;;;;;;;17.12;38.53;99984.68;25172;1312;3026332;-70
2022/04/30 10:15:04;;;;;;;1.60;0.90;;;;;;;17.37;36.74;99981.61;25157;1313;3054285;-69
2022/04/30 10:17:34;;;;;;;3.40;1.20;;;;;;;17.52;36.04;99976.84;25173;1313;3070736;-67
2022/04/30 10:20:14;;;;;;;4.00;1.10;;;;;;;17.74;36.31;99972.77;25204;1313;3027154;-69
2022/04/30 10:22:50;;;;;;;2.80;1.20;;;;;;;17.92;35.99;99976.64;25151;1313;3053576;-68
2022/04/30 10:25:42;;;;;;;4.60;1.60;;;;;;;17.82;36.25;99971.80;25162;1313;3054563;-68
2022/04/30 10:28:15;;;;;;;3.40;1.20;;;;;;;17.75;36.04;99973.40;25184;1313;3056924;-69
2022/04/30 10:30:44;;;;;;;2.40;1.00;;;;;;;17.81;35.34;99971.16;25170;1313;3027379;-69
2022/04/30 10:33:14;;;;;;;1.60;1.10;;;;;;;17.66;35.06;99966.02;25232;1313;3026082;-68
2022/04/30 10:35:45;;;;;;;3.60;1.30;;;;;;;17.76;35.07;99965.04;25191;1313;3027070;-71
2022/04/30 10:38:19;;;;;;;3.60;1.40;;;;;;;17.67;35.33;99963.06;25132;1313;3026946;-72
2022/04/30 10:40:49;;;;;;;3.90;1.50;;;;;;;17.84;35.44;99962.55;25186;1313;3026878;-67
2022/04/30 10:43:28;;;;;;;5.00;1.10;;;;;;;18.01;34.59;99960.98;25154;1313;3029962;-70
2022/04/30 10:45:57;;;;;;;4.90;1.40;;;;;;;18.22;34.35;99967.05;25175;1313;3053312;-68
2022/04/30 10:48:27;;;;;;;6.80;1.20;;;;;;;18.50;33.92;99957.37;25154;1313;3027778;-68
2022/04/30 10:51:09;;;;;;;1.60;1.20;;;;;;;18.31;34.23;99955.27;25169;1313;3026308;-67
2022/04/30 10:53:39;;;;;;;1.90;1.10;;;;;;;18.25;34.09;99955.41;25133;1313;3053739;-69
2022/04/30 10:56:09;;;;;;;3.70;1.20;;;;;;;18.12;34.72;99948.23;25147;1313;3026799;-67
2022/04/30 10:58:41;;;;;;;2.70;1.20;;;;;;;17.99;34.71;99941.69;25152;1313;3026678;-68
2022/04/30 11:01:17;;;;;;;3.20;1.20;;;;;;;17.94;34.76;99941.96;25172;1313;3027266;-68
2022/04/30 11:03:49;;;;;;;4.50;1.40;;;;;;;17.75;34.64;99942.02;25146;1313;3053020;-67
2022/04/30 11:06:24;;;;;;;2.60;1.30;;;;;;;17.68;34.50;99939.64;25185;1313;3026641;-69
2022/04/30 11:08:59;;;;;;;;;;;;;;;17.62;34.88;99937.83;25131;1313;3059109;-70
2022/04/30 11:11:29;;;;;;;6.20;1.90;;;;;;;17.49;35.49;99934.22;25137;1313;3049638;-70
2022/04/30 11:14:03;;;;;;;2.00;1.30;;;;;;;17.49;35.62;99928.59;25206;1313;3028336;-69
2022/04/30 11:16:35;;;;;;;6.50;1.70;;;;;;;17.49;35.27;99931.47;25183;1313;3057058;-71
2022/04/30 11:19:08;;;;;;;5.60;1.40;;;;;;;17.40;35.35;99933.02;25200;1312;3028459;-67
2022/04/30 11:21:45;;;;;;;2.10;1.30;;;;;;;17.26;35.15;99932.80;25149;1316;3053327;-67
2022/04/30 11:24:28;;;;;;;5.40;1.20;;;;;;;17.50;34.53;99928.19;25215;1313;3051417;-65
2022/04/30 11:27:00;;;;;;;1.80;1.30;;;;;;;17.75;33.93;99929.98;25196;1313;3071537;-67
2022/04/30 11:29:29;;;;;;;1.90;1.10;;;;;;;17.94;33.54;99927.58;25162;1313;3027009;-65
2022/04/30 11:32:00;;;;;;;1.80;1.10;;;;;;;18.20;33.44;99922.02;25145;1313;3027901;-65
2022/04/30 11:34:29;;;;;;;5.80;1.30;;;;;;;18.43;33.42;99916.69;25163;1313;3026795;-68
2022/04/30 11:37:00;;;;;;;3.30;1.40;;;;;;;18.64;32.84;99911.89;25132;1315;3026412;-64
2022/04/30 11:39:29;;;;;;;3.30;1.60;;;;;;;18.60;33.11;99911.32;25159;1313;3054911;-67
2022/04/30 11:41:58;;;;;;;3.50;1.10;;;;;;;18.53;33.25;99905.32;25177;1313;3026703;-67
2022/04/30 11:44:29;;;;;;;3.30;1.40;;;;;;;18.46;32.83;99902.36;25122;1313;3026677;-63
2022/04/30 11:46:58;;;;;;;5.20;1.60;;;;;;;18.59;33.11;99895.81;25207;1312;3026940;-64
2022/04/30 11:49:27;;;;;;;4.40;1.30;;;;;;;18.59;33.34;99897.05;25138;1313;3051671;-67
2022/04/30 11:51:57;;;;;;;2.80;1.30;;;;;;;18.72;33.52;99891.63;25139;1313;3026448;-68
2022/04/30 11:54:27;;;;;;;2.30;1.10;;;;;;;18.78;32.91;99885.96;25104;1313;3029836;-64
2022/04/30 11:56:57;;;;;;;3.50;1.30;;;;;;;18.94;32.66;99884.52;25199;1313;3026468;-67
2022/04/30 11:59:37;;;;;;;5.10;1.50;;;;;;;18.95;32.71;99884.85;25155;1313;3026371;-65
2022/04/30 12:02:11;;;;;;;2.00;1.10;;;;;;;19.13;32.61;99882.50;25188;1313;3070147;-66
2022/04/30 12:04:43;;;;;;;3.20;1.20;;;;;;;19.16;33.09;99879.39;25241;1313;3049967;-65